aviador You're here:

LEZL Decoded Metar

SEVILLA in SPAIN
Report Time2017-11-25 07:00:00
UTC Time2017-11-25 07:29:24
Flight Rules vfr VFR
Wind140° at 03 kt
W.Decomp.*RWY 09: 1.8 kt HW 2.4 kt RCW
W.Rank140° ranks 33
Current wind is below 140° avg. (3.0)
Visibility9999 m
Phenomena:N/A
Clouds:N/A
Expected CloudBase > 800 ft AGL from Temp-Dew spread
CeilingNone
Temp07°C (ISA -8)
Dew Point05°C (87% RH)
AAT4.8°C
QNH1020 hPa
Density Alt-955 ft
Elevation102 ft
Report Wrong Elevation
Raw Report
LEZL 250700Z 14003KT CAVOK 07/05 Q1020 NOSIG=

Extra information for LEZL:More info

Metar Taf Metar & Taf Last 4 Metars F.Rules Stats Wind Profile Meteogram Temp Stats Airport Information Weather charts Add Link Nearby VenuesMetar ALERT Operation Metar Decoded Social comments